createdAt,value
2023-05-19T00:02:44.110Z,101052.66
2023-05-19T00:07:48.202Z,101061.34
2023-05-19T00:12:53.807Z,101044.66
2023-05-19T00:17:58.167Z,101049.44
2023-05-19T00:23:01.118Z,101042.13
2023-05-19T00:28:04.067Z,101037.31
2023-05-19T00:33:08.267Z,101029.63
2023-05-19T00:38:11.242Z,101023.69
2023-05-19T00:43:14.201Z,101011.47
2023-05-19T00:48:18.426Z,101014.41
2023-05-19T00:53:22.122Z,101015.75
2023-05-19T00:58:29.156Z,101023.34
2023-05-19T01:03:35.049Z,101024.53
2023-05-19T01:08:39.566Z,101027.72
2023-05-19T01:13:42.539Z,101023.41
2023-05-19T01:18:57.941Z,101023.72
2023-05-19T01:24:22.816Z,101017.66
2023-05-19T01:29:51.775Z,101024.22
2023-05-19T01:34:59.302Z,101016.34
2023-05-19T01:40:02.397Z,101021.97
2023-05-19T01:45:10.369Z,101017.78
2023-05-19T01:50:14.623Z,101026.22
2023-05-19T01:55:17.723Z,101024.06
2023-05-19T02:00:32.792Z,101026.88
2023-05-19T02:05:46.714Z,101023.50
2023-05-19T02:10:56.104Z,101021.78
2023-05-19T02:16:05.411Z,101014.75
2023-05-19T02:21:13.346Z,101026.56
2023-05-19T02:26:16.181Z,101012.38
2023-05-19T02:31:19.070Z,101004.56
2023-05-19T02:36:23.317Z,101000.78
2023-05-19T02:41:27.073Z,101006.75
2023-05-19T02:46:30.567Z,101002.44
2023-05-19T02:51:34.875Z,100997.03
2023-05-19T02:56:37.715Z,101016.94
2023-05-19T03:01:40.621Z,101014.44
2023-05-19T03:06:45.521Z,101015.53
2023-05-19T03:11:48.415Z,101006.44
2023-05-19T03:16:51.517Z,101005.91
2023-05-19T03:21:56.412Z,101011.50
2023-05-19T03:26:59.242Z,101014.34
2023-05-19T03:32:02.584Z,101009.16
2023-05-19T03:37:06.903Z,101015.50
2023-05-19T03:42:12.525Z,101015.72
2023-05-19T03:47:15.938Z,101016.88
2023-05-19T03:52:22.691Z,101022.59
2023-05-19T03:57:33.591Z,101020.03
2023-05-19T04:02:36.609Z,101020.03
2023-05-19T04:07:41.367Z,101011.03
2023-05-19T04:12:44.427Z,101016.56
2023-05-19T04:17:47.384Z,101022.06
2023-05-19T04:22:51.547Z,101028.56
2023-05-19T04:27:57.693Z,101027.47
2023-05-19T04:33:01.106Z,101019.69
2023-05-19T04:38:05.553Z,101019.03
2023-05-19T04:43:11.348Z,101023.56
2023-05-19T04:48:16.064Z,101024.56
2023-05-19T04:53:22.007Z,101033.63
2023-05-19T04:58:26.069Z,101025.63
2023-05-19T05:03:30.852Z,101026.41
2023-05-19T05:08:35.459Z,101022.72
2023-05-19T05:13:39.008Z,101012.75
2023-05-19T05:18:44.605Z,101022.59
2023-05-19T05:23:50.131Z,101026.91
2023-05-19T05:28:53.512Z,101020.44
2023-05-19T05:33:56.881Z,101020.44
2023-05-19T05:39:05.662Z,101012.34
2023-05-19T05:44:08.912Z,101023.03
2023-05-19T05:49:14.706Z,101031.03
2023-05-19T05:54:23.178Z,101029.13
2023-05-19T05:59:27.418Z,101035.38
2023-05-19T06:04:31.022Z,101038.97
2023-05-19T06:09:35.288Z,101038.75
2023-05-19T06:14:39.162Z,101043.06
2023-05-19T06:20:10.227Z,101042.09
2023-05-19T06:25:15.078Z,101048.19
2023-05-19T06:30:18.486Z,101040.91
2023-05-19T06:35:39.400Z,101038.97
2023-05-19T06:40:44.051Z,101040.91
2023-05-19T06:45:47.019Z,101045.28
2023-05-19T06:50:50.698Z,101047.19
2023-05-19T06:55:59.797Z,101051.63
2023-05-19T07:01:07.571Z,101056.97
2023-05-19T07:06:17.081Z,101052.44
2023-05-19T07:11:21.676Z,101049.75
2023-05-19T07:16:24.906Z,101045.28
2023-05-19T07:21:28.054Z,101054.16
2023-05-19T07:26:32.334Z,101045.81
2023-05-19T07:31:35.602Z,101040.31
2023-05-19T07:36:38.620Z,101027.66
2023-05-19T07:41:42.977Z,101028.50
2023-05-19T07:46:46.024Z,101026.00
2023-05-19T07:51:48.946Z,101020.44
2023-05-19T07:56:53.260Z,101026.03
2023-05-19T08:01:56.291Z,101019.59
2023-05-19T08:06:59.678Z,101025.78
2023-05-19T08:12:04.944Z,101027.25
2023-05-19T08:17:07.891Z,101032.31
2023-05-19T08:22:10.905Z,101024.75
2023-05-19T08:27:15.418Z,101018.28
2023-05-19T08:32:18.701Z,101009.50
2023-05-19T08:37:21.676Z,101023.03
2023-05-19T08:42:25.974Z,101015.72
2023-05-19T08:47:29.874Z,101006.50
2023-05-19T08:52:41.033Z,101005.63
2023-05-19T08:57:46.490Z,100999.34
2023-05-19T09:03:00.753Z,101006.44
2023-05-19T09:08:09.524Z,101001.03
2023-05-19T09:13:14.206Z,100995.50
2023-05-19T09:18:17.187Z,100988.25
2023-05-19T09:23:20.950Z,100989.22
2023-05-19T09:28:30.510Z,100977.44
2023-05-19T09:33:35.008Z,100976.34
2023-05-19T09:38:39.116Z,100967.75
2023-05-19T09:43:43.811Z,100958.03
2023-05-19T09:48:46.632Z,100956.94
2023-05-19T09:53:49.563Z,100944.63
2023-05-19T09:58:53.882Z,100947.44
2023-05-19T10:03:57.340Z,100950.91
2023-05-19T10:09:01.467Z,100931.56
2023-05-19T10:14:06.890Z,100922.75
2023-05-19T10:19:10.782Z,100923.63
2023-05-19T10:24:13.873Z,100923.41
2023-05-19T10:29:23.030Z,100923.41
2023-05-19T10:34:57.262Z,100926.41
2023-05-19T10:40:00.463Z,100909.56
2023-05-19T10:45:12.924Z,100918.19
2023-05-19T10:50:17.334Z,100912.25
2023-05-19T10:55:47.131Z,100905.66
2023-05-19T11:01:02.308Z,100900.22
2023-05-19T11:06:18.993Z,100906.41
2023-05-19T11:11:23.463Z,100913.09
2023-05-19T11:16:32.566Z,100894.41
2023-05-19T11:21:43.086Z,100884.56
2023-05-19T11:26:47.576Z,100882.78
2023-05-19T14:19:55.810Z,100818.47
2023-05-19T14:25:00.459Z,100818.38
2023-05-19T14:30:03.483Z,100834.06
2023-05-19T14:35:08.761Z,100837.22
2023-05-19T14:40:12.692Z,100836.72
2023-05-19T14:45:16.433Z,100842.94
2023-05-19T14:50:20.783Z,100848.50
2023-05-19T14:55:23.588Z,100834.03
2023-05-19T15:00:26.949Z,100833.22
2023-05-19T15:05:31.128Z,100834.69
2023-05-19T15:10:34.144Z,100839.00
2023-05-19T15:15:37.166Z,100835.25
2023-05-19T15:20:41.291Z,100846.69
2023-05-19T15:25:45.504Z,100848.22
2023-05-19T15:30:48.481Z,100826.66
2023-05-19T15:35:52.814Z,100831.38
2023-05-19T15:40:55.676Z,100834.84
2023-05-19T15:45:58.602Z,100844.41
2023-05-19T15:51:03.114Z,100842.09
2023-05-19T15:56:06.497Z,100840.25
2023-05-19T16:01:10.117Z,100837.91
2023-05-19T16:06:14.586Z,100838.16
2023-05-19T16:11:18.244Z,100827.81
2023-05-19T16:16:21.221Z,100821.38
2023-05-19T16:21:25.532Z,100828.50
2023-05-19T16:26:28.949Z,100822.13
2023-05-19T16:31:31.862Z,100824.09
2023-05-19T16:36:36.499Z,100819.03
2023-05-19T16:41:41.643Z,100843.00
2023-05-19T16:46:44.542Z,100832.22
2023-05-19T16:51:48.968Z,100851.59
2023-05-19T16:56:53.495Z,100850.13
2023-05-19T17:01:56.973Z,100837.94
2023-05-19T17:07:01.268Z,100828.28
2023-05-19T17:12:04.616Z,100830.38
2023-05-19T17:17:07.699Z,100842.09
2023-05-19T17:22:12.004Z,100835.44
2023-05-19T17:27:15.055Z,100837.44
2023-05-19T17:32:18.105Z,100858.13
2023-05-19T17:37:25.597Z,100848.88
2023-05-19T17:42:29.086Z,100847.66
2023-05-19T17:47:31.976Z,100848.28
2023-05-19T17:52:36.849Z,100850.00
2023-05-19T17:57:41.446Z,100851.22
2023-05-19T18:02:45.252Z,100841.63
2023-05-19T18:07:50.773Z,100842.34
2023-05-19T18:12:53.818Z,100846.78
2023-05-19T18:17:56.681Z,100825.78
2023-05-19T18:23:01.049Z,100834.56
2023-05-19T18:28:03.868Z,100832.59
2023-05-19T18:33:07.405Z,100831.59
2023-05-19T18:38:11.753Z,100833.19
2023-05-19T18:43:14.581Z,100832.09
2023-05-19T18:48:17.587Z,100834.38
2023-05-19T18:53:22.077Z,100841.72
2023-05-19T18:58:25.038Z,100848.00
2023-05-19T19:03:28.601Z,100852.56
2023-05-19T19:08:32.933Z,100845.28
2023-05-19T19:13:35.997Z,100849.00
2023-05-19T19:18:39.146Z,100849.13
2023-05-19T19:23:43.736Z,100858.78
2023-05-19T19:28:46.745Z,100869.13
2023-05-19T19:33:49.577Z,100864.91
2023-05-19T19:38:53.758Z,100871.59
2023-05-19T19:43:56.880Z,100875.63
2023-05-19T19:49:00.408Z,100878.13
2023-05-19T19:54:04.687Z,100878.09
2023-05-19T19:59:07.635Z,100869.69
2023-05-19T20:05:15.406Z,100875.25
2023-05-19T20:10:20.009Z,100878.06
2023-05-19T20:15:22.849Z,100887.94
2023-05-19T20:20:25.622Z,100879.78
2023-05-19T20:25:29.825Z,100880.41
2023-05-19T20:30:33.277Z,100885.56
2023-05-19T20:35:36.435Z,100879.03
2023-05-19T20:40:40.743Z,100883.38
2023-05-19T20:45:44.252Z,100887.81
2023-05-19T20:50:47.123Z,100875.06
2023-05-19T20:55:51.274Z,100883.13
2023-05-19T21:00:57.533Z,100884.56
2023-05-19T21:06:00.965Z,100884.69
2023-05-19T21:11:05.153Z,100882.13
2023-05-19T21:16:08.181Z,100888.56
2023-05-19T21:21:10.986Z,100892.25
2023-05-19T21:26:15.441Z,100892.63
2023-05-19T21:31:18.317Z,100895.56
2023-05-19T21:36:21.265Z,100890.16
2023-05-19T21:41:25.968Z,100899.16
2023-05-19T21:46:29.413Z,100892.06
2023-05-19T21:51:34.973Z,100904.41
2023-05-19T21:56:39.219Z,100908.19
2023-05-19T22:01:42.275Z,100900.38
2023-05-19T22:06:45.478Z,100893.13
2023-05-19T22:11:49.713Z,100884.72
2023-05-19T22:16:52.536Z,100888.94
2023-05-19T22:22:01.869Z,100886.69
2023-05-19T22:27:10.316Z,100891.75
2023-05-19T22:32:14.074Z,100888.16
2023-05-19T22:37:16.839Z,100896.78
2023-05-19T22:42:21.163Z,100899.25
2023-05-19T22:47:23.984Z,100893.44
2023-05-19T22:52:26.838Z,100892.06
2023-05-19T22:57:31.177Z,100885.13
2023-05-19T23:02:33.946Z,100887.34
2023-05-19T23:07:36.796Z,100890.66
2023-05-19T23:12:41.006Z,100894.25
2023-05-19T23:17:43.832Z,100880.66
2023-05-19T23:22:46.741Z,100884.09
2023-05-19T23:27:50.882Z,100882.22
2023-05-19T23:32:53.923Z,100881.97
2023-05-19T23:37:56.732Z,100871.97
2023-05-19T23:43:01.101Z,100870.09
2023-05-19T23:48:04.066Z,100861.69
2023-05-19T23:53:06.913Z,100858.09
2023-05-19T23:58:11.236Z,100856.38
